sensor_id;sensor_type;location;lat;lon;timestamp;temperature;humidity
49124;DHT22;48506;48.202;16.274;2024-03-02T00:00:19;9.00;99.90
49124;DHT22;48506;48.202;16.274;2024-03-02T00:02:48;8.90;99.90
49124;DHT22;48506;48.202;16.274;2024-03-02T00:05:19;8.90;99.90
49124;DHT22;48506;48.202;16.274;2024-03-02T00:07:54;8.90;99.90
49124;DHT22;48506;48.202;16.274;2024-03-02T00:10:26;8.90;99.90
49124;DHT22;48506;48.202;16.274;2024-03-02T00:12:57;9.00;99.90
49124;DHT22;48506;48.202;16.274;2024-03-02T00:15:46;9.00;99.90
49124;DHT22;48506;48.202;16.274;2024-03-02T00:18:16;9.00;99.90
49124;DHT22;48506;48.202;16.274;2024-03-02T00:20:45;9.10;99.90
49124;DHT22;48506;48.202;16.274;2024-03-02T00:23:15;9.10;99.90
49124;DHT22;48506;48.202;16.274;2024-03-02T00:25:49;9.10;99.90
49124;DHT22;48506;48.202;16.274;2024-03-02T00:28:21;9.10;99.90
49124;DHT22;48506;48.202;16.274;2024-03-02T00:31:30;9.10;99.90
49124;DHT22;48506;48.202;16.274;2024-03-02T00:33:47;9.00;99.90
49124;DHT22;48506;48.202;16.274;2024-03-02T00:36:22;9.00;99.90
49124;DHT22;48506;48.202;16.274;2024-03-02T00:38:52;9.00;99.90
49124;DHT22;48506;48.202;16.274;2024-03-02T00:41:31;8.90;99.90
49124;DHT22;48506;48.202;16.274;2024-03-02T00:44:00;8.90;99.90
49124;DHT22;48506;48.202;16.274;2024-03-02T00:46:36;8.90;99.90
49124;DHT22;48506;48.202;16.274;2024-03-02T00:49:04;8.80;99.90
49124;DHT22;48506;48.202;16.274;2024-03-02T00:51:34;8.80;99.90
49124;DHT22;48506;48.202;16.274;2024-03-02T00:54:07;8.70;99.90
49124;DHT22;48506;48.202;16.274;2024-03-02T00:56:33;8.60;99.90
49124;DHT22;48506;48.202;16.274;2024-03-02T00:59:00;8.60;99.90
49124;DHT22;48506;48.202;16.274;2024-03-02T01:01:26;8.50;99.90
49124;DHT22;48506;48.202;16.274;2024-03-02T01:03:52;8.40;99.90
49124;DHT22;48506;48.202;16.274;2024-03-02T01:06:18;8.40;99.90
49124;DHT22;48506;48.202;16.274;2024-03-02T01:08:45;8.30;99.90
49124;DHT22;48506;48.202;16.274;2024-03-02T01:11:12;8.20;99.90
49124;DHT22;48506;48.202;16.274;2024-03-02T01:13:38;8.20;99.90
49124;DHT22;48506;48.202;16.274;2024-03-02T01:16:04;8.10;99.90
49124;DHT22;48506;48.202;16.274;2024-03-02T01:18:30;8.10;99.90
49124;DHT22;48506;48.202;16.274;2024-03-02T01:20:56;8.00;99.90
49124;DHT22;48506;48.202;16.274;2024-03-02T01:23:23;8.00;99.90
49124;DHT22;48506;48.202;16.274;2024-03-02T01:25:49;7.90;99.90
49124;DHT22;48506;48.202;16.274;2024-03-02T01:28:16;7.90;99.90
49124;DHT22;48506;48.202;16.274;2024-03-02T01:30:42;7.90;99.90
49124;DHT22;48506;48.202;16.274;2024-03-02T01:33:09;7.90;99.90
49124;DHT22;48506;48.202;16.274;2024-03-02T01:35:35;7.90;99.90
49124;DHT22;48506;48.202;16.274;2024-03-02T01:38:01;7.90;99.90
49124;DHT22;48506;48.202;16.274;2024-03-02T01:40:27;7.90;99.90
49124;DHT22;48506;48.202;16.274;2024-03-02T01:42:54;7.90;99.90
49124;DHT22;48506;48.202;16.274;2024-03-02T01:45:21;7.90;99.90
49124;DHT22;48506;48.202;16.274;2024-03-02T01:47:47;7.90;99.90
49124;DHT22;48506;48.202;16.274;2024-03-02T01:50:13;7.90;99.90
49124;DHT22;48506;48.202;16.274;2024-03-02T01:52:40;7.90;99.90
49124;DHT22;48506;48.202;16.274;2024-03-02T01:55:06;7.90;99.90
49124;DHT22;48506;48.202;16.274;2024-03-02T01:57:34;7.90;99.90
49124;DHT22;48506;48.202;16.274;2024-03-02T02:00:00;7.80;99.90
49124;DHT22;48506;48.202;16.274;2024-03-02T02:02:26;7.80;99.90
49124;DHT22;48506;48.202;16.274;2024-03-02T02:04:53;7.70;99.90
49124;DHT22;48506;48.202;16.274;2024-03-02T02:07:19;7.70;99.90
49124;DHT22;48506;48.202;16.274;2024-03-02T02:09:44;7.60;99.90
49124;DHT22;48506;48.202;16.274;2024-03-02T02:12:11;7.60;99.90
49124;DHT22;48506;48.202;16.274;2024-03-02T02:14:37;7.60;99.90
49124;DHT22;48506;48.202;16.274;2024-03-02T02:17:03;7.60;99.90
49124;DHT22;48506;48.202;16.274;2024-03-02T02:19:29;7.60;99.90
49124;DHT22;48506;48.202;16.274;2024-03-02T02:21:55;7.50;99.90
49124;DHT22;48506;48.202;16.274;2024-03-02T02:24:21;7.50;99.90
49124;DHT22;48506;48.202;16.274;2024-03-02T02:26:47;7.50;99.90
49124;DHT22;48506;48.202;16.274;2024-03-02T02:29:12;7.50;99.90
49124;DHT22;48506;48.202;16.274;2024-03-02T02:31:42;7.50;99.90
49124;DHT22;48506;48.202;16.274;2024-03-02T02:34:07;7.50;99.90
49124;DHT22;48506;48.202;16.274;2024-03-02T02:36:37;7.50;99.90
49124;DHT22;48506;48.202;16.274;2024-03-02T02:39:04;7.50;99.90
49124;DHT22;48506;48.202;16.274;2024-03-02T02:41:32;7.50;99.90
49124;DHT22;48506;48.202;16.274;2024-03-02T02:43:59;7.50;99.90
49124;DHT22;48506;48.202;16.274;2024-03-02T02:46:24;7.40;99.90
49124;DHT22;48506;48.202;16.274;2024-03-02T02:48:50;7.40;99.90
49124;DHT22;48506;48.202;16.274;2024-03-02T02:51:18;7.50;99.90
49124;DHT22;48506;48.202;16.274;2024-03-02T02:53:44;7.50;99.90
49124;DHT22;48506;48.202;16.274;2024-03-02T02:56:10;7.50;99.90
49124;DHT22;48506;48.202;16.274;2024-03-02T02:58:36;7.50;99.90
49124;DHT22;48506;48.202;16.274;2024-03-02T03:01:02;7.50;99.90
49124;DHT22;48506;48.202;16.274;2024-03-02T03:03:28;7.50;99.90
49124;DHT22;48506;48.202;16.274;2024-03-02T03:05:54;7.60;99.90
49124;DHT22;48506;48.202;16.274;2024-03-02T03:08:19;7.70;99.90
49124;DHT22;48506;48.202;16.274;2024-03-02T03:10:45;7.70;99.90
49124;DHT22;48506;48.202;16.274;2024-03-02T03:13:11;7.80;99.90
49124;DHT22;48506;48.202;16.274;2024-03-02T03:15:37;7.80;99.90
49124;DHT22;48506;48.202;16.274;2024-03-02T03:18:04;7.80;99.90
49124;DHT22;48506;48.202;16.274;2024-03-02T03:20:31;7.90;99.90
49124;DHT22;48506;48.202;16.274;2024-03-02T03:22:57;7.90;99.90
49124;DHT22;48506;48.202;16.274;2024-03-02T03:25:23;8.00;99.90
49124;DHT22;48506;48.202;16.274;2024-03-02T03:27:49;8.00;99.90
49124;DHT22;48506;48.202;16.274;2024-03-02T03:30:15;8.00;99.90
49124;DHT22;48506;48.202;16.274;2024-03-02T03:32:41;8.10;99.90
49124;DHT22;48506;48.202;16.274;2024-03-02T03:35:07;8.10;99.90
49124;DHT22;48506;48.202;16.274;2024-03-02T03:37:33;8.20;99.90
49124;DHT22;48506;48.202;16.274;2024-03-02T03:40:00;8.30;99.90
49124;DHT22;48506;48.202;16.274;2024-03-02T03:42:27;8.30;99.90
49124;DHT22;48506;48.202;16.274;2024-03-02T03:44:52;8.30;99.90
49124;DHT22;48506;48.202;16.274;2024-03-02T03:47:18;8.30;99.90
49124;DHT22;48506;48.202;16.274;2024-03-02T03:49:45;8.40;99.90
49124;DHT22;48506;48.202;16.274;2024-03-02T03:52:11;8.40;99.90
49124;DHT22;48506;48.202;16.274;2024-03-02T03:54:37;8.40;99.90
49124;DHT22;48506;48.202;16.274;2024-03-02T03:57:04;8.40;99.90
49124;DHT22;48506;48.202;16.274;2024-03-02T03:59:30;8.50;99.90
49124;DHT22;48506;48.202;16.274;2024-03-02T04:01:56;8.50;99.90
49124;DHT22;48506;48.202;16.274;2024-03-02T04:04:22;8.50;99.90
49124;DHT22;48506;48.202;16.274;2024-03-02T04:06:48;8.50;99.90
49124;DHT22;48506;48.202;16.274;2024-03-02T04:09:14;8.50;99.90
49124;DHT22;48506;48.202;16.274;2024-03-02T04:11:39;8.50;99.90
49124;DHT22;48506;48.202;16.274;2024-03-02T04:14:06;8.50;99.90
49124;DHT22;48506;48.202;16.274;2024-03-02T04:16:32;8.50;99.90
49124;DHT22;48506;48.202;16.274;2024-03-02T04:18:58;8.50;99.90
49124;DHT22;48506;48.202;16.274;2024-03-02T04:21:23;8.50;99.90
49124;DHT22;48506;48.202;16.274;2024-03-02T04:23:49;8.50;99.90
49124;DHT22;48506;48.202;16.274;2024-03-02T04:26:15;8.50;99.90
49124;DHT22;48506;48.202;16.274;2024-03-02T04:28:45;8.50;99.90
49124;DHT22;48506;48.202;16.274;2024-03-02T04:31:11;8.50;99.90
49124;DHT22;48506;48.202;16.274;2024-03-02T04:33:37;8.50;99.90
49124;DHT22;48506;48.202;16.274;2024-03-02T04:36:03;8.60;99.90
49124;DHT22;48506;48.202;16.274;2024-03-02T04:38:29;8.50;99.90
49124;DHT22;48506;48.202;16.274;2024-03-02T04:40:56;8.60;99.90
49124;DHT22;48506;48.202;16.274;2024-03-02T04:43:21;8.60;99.90
49124;DHT22;48506;48.202;16.274;2024-03-02T04:45:47;8.60;99.90
49124;DHT22;48506;48.202;16.274;2024-03-02T04:48:13;8.60;99.90
49124;DHT22;48506;48.202;16.274;2024-03-02T04:50:40;8.60;99.90
49124;DHT22;48506;48.202;16.274;2024-03-02T04:53:06;8.60;99.90
49124;DHT22;48506;48.202;16.274;2024-03-02T04:55:31;8.60;99.90
49124;DHT22;48506;48.202;16.274;2024-03-02T04:58:00;8.50;99.90
49124;DHT22;48506;48.202;16.274;2024-03-02T05:00:26;8.50;99.90
49124;DHT22;48506;48.202;16.274;2024-03-02T05:02:52;8.50;99.90
49124;DHT22;48506;48.202;16.274;2024-03-02T05:05:18;8.50;99.90
49124;DHT22;48506;48.202;16.274;2024-03-02T05:07:44;8.50;99.90
49124;DHT22;48506;48.202;16.274;2024-03-02T05:10:10;8.50;99.90
49124;DHT22;48506;48.202;16.274;2024-03-02T05:12:40;8.40;99.90
49124;DHT22;48506;48.202;16.274;2024-03-02T05:15:13;8.40;99.90
49124;DHT22;48506;48.202;16.274;2024-03-02T05:17:41;8.50;99.90
49124;DHT22;48506;48.202;16.274;2024-03-02T05:20:09;8.40;99.90
49124;DHT22;48506;48.202;16.274;2024-03-02T05:22:35;8.40;99.90
49124;DHT22;48506;48.202;16.274;2024-03-02T05:25:05;8.40;99.90
49124;DHT22;48506;48.202;16.274;2024-03-02T05:27:31;8.40;99.90
49124;DHT22;48506;48.202;16.274;2024-03-02T05:29:59;8.50;99.90
49124;DHT22;48506;48.202;16.274;2024-03-02T05:32:25;8.50;99.90
49124;DHT22;48506;48.202;16.274;2024-03-02T05:34:51;8.40;99.90
49124;DHT22;48506;48.202;16.274;2024-03-02T05:37:17;8.40;99.90
49124;DHT22;48506;48.202;16.274;2024-03-02T05:39:43;8.40;99.90
49124;DHT22;48506;48.202;16.274;2024-03-02T05:42:10;8.40;99.90
49124;DHT22;48506;48.202;16.274;2024-03-02T05:44:36;8.40;99.90
49124;DHT22;48506;48.202;16.274;2024-03-02T05:47:02;8.40;99.90
49124;DHT22;48506;48.202;16.274;2024-03-02T05:49:29;8.30;99.90
49124;DHT22;48506;48.202;16.274;2024-03-02T05:51:55;8.30;99.90
49124;DHT22;48506;48.202;16.274;2024-03-02T05:54:21;8.30;99.90
49124;DHT22;48506;48.202;16.274;2024-03-02T05:56:47;8.30;99.90
49124;DHT22;48506;48.202;16.274;2024-03-02T05:59:13;8.30;99.90
49124;DHT22;48506;48.202;16.274;2024-03-02T06:01:40;8.40;99.90
49124;DHT22;48506;48.202;16.274;2024-03-02T06:04:06;8.40;99.90
49124;DHT22;48506;48.202;16.274;2024-03-02T06:06:33;8.40;99.90
49124;DHT22;48506;48.202;16.274;2024-03-02T06:09:03;8.40;99.90
49124;DHT22;48506;48.202;16.274;2024-03-02T06:11:38;8.30;99.90
49124;DHT22;48506;48.202;16.274;2024-03-02T06:14:06;8.30;99.90
49124;DHT22;48506;48.202;16.274;2024-03-02T06:16:33;8.30;99.90
49124;DHT22;48506;48.202;16.274;2024-03-02T06:18:59;8.20;99.90
49124;DHT22;48506;48.202;16.274;2024-03-02T06:21:25;8.20;99.90
49124;DHT22;48506;48.202;16.274;2024-03-02T06:23:52;8.10;99.90
49124;DHT22;48506;48.202;16.274;2024-03-02T06:26:18;8.10;99.90
49124;DHT22;48506;48.202;16.274;2024-03-02T06:28:44;8.10;99.90
49124;DHT22;48506;48.202;16.274;2024-03-02T06:31:11;8.10;99.90
49124;DHT22;48506;48.202;16.274;2024-03-02T06:33:37;8.00;99.90
49124;DHT22;48506;48.202;16.274;2024-03-02T06:36:03;8.10;99.90
49124;DHT22;48506;48.202;16.274;2024-03-02T06:38:29;8.00;99.90
49124;DHT22;48506;48.202;16.274;2024-03-02T06:40:57;8.00;99.90
49124;DHT22;48506;48.202;16.274;2024-03-02T06:43:23;8.00;99.90
49124;DHT22;48506;48.202;16.274;2024-03-02T06:45:50;8.00;99.90
49124;DHT22;48506;48.202;16.274;2024-03-02T06:48:17;8.10;99.90
49124;DHT22;48506;48.202;16.274;2024-03-02T06:50:48;8.10;99.90
49124;DHT22;48506;48.202;16.274;2024-03-02T06:53:14;8.10;99.90
49124;DHT22;48506;48.202;16.274;2024-03-02T06:55:46;8.10;99.90
49124;DHT22;48506;48.202;16.274;2024-03-02T06:58:13;8.10;99.90
49124;DHT22;48506;48.202;16.274;2024-03-02T07:00:42;8.10;99.90
49124;DHT22;48506;48.202;16.274;2024-03-02T07:03:08;8.10;99.90
49124;DHT22;48506;48.202;16.274;2024-03-02T07:05:34;8.20;99.90
49124;DHT22;48506;48.202;16.274;2024-03-02T07:08:00;8.20;99.90
49124;DHT22;48506;48.202;16.274;2024-03-02T07:10:27;8.20;99.90
49124;DHT22;48506;48.202;16.274;2024-03-02T07:12:53;8.30;99.90
49124;DHT22;48506;48.202;16.274;2024-03-02T07:15:19;8.30;99.90
49124;DHT22;48506;48.202;16.274;2024-03-02T07:17:54;8.30;99.90
49124;DHT22;48506;48.202;16.274;2024-03-02T07:20:20;8.30;99.90
49124;DHT22;48506;48.202;16.274;2024-03-02T07:22:46;8.40;99.90
49124;DHT22;48506;48.202;16.274;2024-03-02T07:25:12;8.40;99.90
49124;DHT22;48506;48.202;16.274;2024-03-02T07:27:39;8.40;99.90
49124;DHT22;48506;48.202;16.274;2024-03-02T07:30:06;8.40;99.90
49124;DHT22;48506;48.202;16.274;2024-03-02T07:32:32;8.50;99.90
49124;DHT22;48506;48.202;16.274;2024-03-02T07:34:58;8.50;99.90
49124;DHT22;48506;48.202;16.274;2024-03-02T07:37:24;8.50;99.90
49124;DHT22;48506;48.202;16.274;2024-03-02T07:39:50;8.60;99.90
49124;DHT22;48506;48.202;16.274;2024-03-02T07:42:17;8.60;99.90
49124;DHT22;48506;48.202;16.274;2024-03-02T07:44:44;8.70;99.90
49124;DHT22;48506;48.202;16.274;2024-03-02T07:47:11;8.60;99.90
49124;DHT22;48506;48.202;16.274;2024-03-02T07:49:37;8.70;99.90
49124;DHT22;48506;48.202;16.274;2024-03-02T07:52:03;8.70;99.90
49124;DHT22;48506;48.202;16.274;2024-03-02T07:54:29;8.70;99.90
49124;DHT22;48506;48.202;16.274;2024-03-02T07:56:55;8.70;99.90
49124;DHT22;48506;48.202;16.274;2024-03-02T07:59:21;8.70;99.90
49124;DHT22;48506;48.202;16.274;2024-03-02T08:01:49;8.70;99.90
49124;DHT22;48506;48.202;16.274;2024-03-02T08:04:16;8.70;99.90
49124;DHT22;48506;48.202;16.274;2024-03-02T08:06:42;8.70;99.90
49124;DHT22;48506;48.202;16.274;2024-03-02T08:09:08;8.80;99.90
49124;DHT22;48506;48.202;16.274;2024-03-02T08:11:36;8.80;99.90
49124;DHT22;48506;48.202;16.274;2024-03-02T08:14:05;8.90;99.90
49124;DHT22;48506;48.202;16.274;2024-03-02T08:16:31;9.00;99.90
49124;DHT22;48506;48.202;16.274;2024-03-02T08:18:58;9.10;99.90
49124;DHT22;48506;48.202;16.274;2024-03-02T08:21:26;9.20;99.90
49124;DHT22;48506;48.202;16.274;2024-03-02T08:23:52;9.30;99.90
49124;DHT22;48506;48.202;16.274;2024-03-02T08:26:18;9.30;99.90
49124;DHT22;48506;48.202;16.274;2024-03-02T08:28:44;9.30;99.90
49124;DHT22;48506;48.202;16.274;2024-03-02T08:31:10;9.40;99.90
49124;DHT22;48506;48.202;16.274;2024-03-02T08:33:36;9.50;99.90
49124;DHT22;48506;48.202;16.274;2024-03-02T08:36:02;9.50;99.90
49124;DHT22;48506;48.202;16.274;2024-03-02T08:38:28;9.50;99.90
49124;DHT22;48506;48.202;16.274;2024-03-02T08:40:54;9.60;99.90
49124;DHT22;48506;48.202;16.274;2024-03-02T08:43:20;9.50;99.90
49124;DHT22;48506;48.202;16.274;2024-03-02T08:45:48;9.60;99.90
49124;DHT22;48506;48.202;16.274;2024-03-02T08:48:15;9.60;99.90
49124;DHT22;48506;48.202;16.274;2024-03-02T08:50:41;9.60;99.90
49124;DHT22;48506;48.202;16.274;2024-03-02T08:53:07;9.60;99.90
49124;DHT22;48506;48.202;16.274;2024-03-02T08:55:33;9.60;99.90
49124;DHT22;48506;48.202;16.274;2024-03-02T08:57:58;9.70;99.90
49124;DHT22;48506;48.202;16.274;2024-03-02T09:00:25;9.80;99.90
49124;DHT22;48506;48.202;16.274;2024-03-02T09:02:51;9.80;99.90
49124;DHT22;48506;48.202;16.274;2024-03-02T09:05:17;9.80;99.90
49124;DHT22;48506;48.202;16.274;2024-03-02T09:07:43;9.90;99.90
49124;DHT22;48506;48.202;16.274;2024-03-02T09:10:09;9.90;99.90
49124;DHT22;48506;48.202;16.274;2024-03-02T09:12:35;9.90;99.90
49124;DHT22;48506;48.202;16.274;2024-03-02T09:15:02;10.00;99.90
49124;DHT22;48506;48.202;16.274;2024-03-02T09:17:31;10.10;99.90
49124;DHT22;48506;48.202;16.274;2024-03-02T09:19:57;10.10;99.90
49124;DHT22;48506;48.202;16.274;2024-03-02T09:22:23;10.20;99.90
49124;DHT22;48506;48.202;16.274;2024-03-02T09:24:49;10.20;99.90
49124;DHT22;48506;48.202;16.274;2024-03-02T09:27:15;10.30;99.90
49124;DHT22;48506;48.202;16.274;2024-03-02T09:29:41;10.30;99.90
49124;DHT22;48506;48.202;16.274;2024-03-02T09:32:13;10.50;99.90
49124;DHT22;48506;48.202;16.274;2024-03-02T09:34:40;10.50;99.90
49124;DHT22;48506;48.202;16.274;2024-03-02T09:37:06;10.70;99.90
49124;DHT22;48506;48.202;16.274;2024-03-02T09:39:32;10.70;99.90
49124;DHT22;48506;48.202;16.274;2024-03-02T09:41:59;10.80;99.90
49124;DHT22;48506;48.202;16.274;2024-03-02T09:44:26;10.90;99.90
49124;DHT22;48506;48.202;16.274;2024-03-02T09:46:52;11.00;99.90
49124;DHT22;48506;48.202;16.274;2024-03-02T09:49:18;11.00;99.90
49124;DHT22;48506;48.202;16.274;2024-03-02T09:51:48;11.00;99.90
49124;DHT22;48506;48.202;16.274;2024-03-02T09:54:16;11.00;99.90
49124;DHT22;48506;48.202;16.274;2024-03-02T09:56:42;11.00;99.90
49124;DHT22;48506;48.202;16.274;2024-03-02T09:59:08;11.00;99.90
49124;DHT22;48506;48.202;16.274;2024-03-02T10:01:34;11.00;99.90
49124;DHT22;48506;48.202;16.274;2024-03-02T10:04:01;11.10;99.90
49124;DHT22;48506;48.202;16.274;2024-03-02T10:06:28;11.10;99.90
49124;DHT22;48506;48.202;16.274;2024-03-02T10:08:55;11.20;99.90
49124;DHT22;48506;48.202;16.274;2024-03-02T10:11:30;11.20;99.90
49124;DHT22;48506;48.202;16.274;2024-03-02T10:14:13;11.30;99.90
49124;DHT22;48506;48.202;16.274;2024-03-02T10:16:44;11.30;99.90
49124;DHT22;48506;48.202;16.274;2024-03-02T10:19:20;11.30;99.90
49124;DHT22;48506;48.202;16.274;2024-03-02T10:21:50;11.30;99.90
49124;DHT22;48506;48.202;16.274;2024-03-02T10:24:18;11.30;99.90
49124;DHT22;48506;48.202;16.274;2024-03-02T10:26:44;11.30;99.90
49124;DHT22;48506;48.202;16.274;2024-03-02T10:29:11;11.30;99.90
49124;DHT22;48506;48.202;16.274;2024-03-02T10:31:39;11.30;99.90
49124;DHT22;48506;48.202;16.274;2024-03-02T10:34:07;11.30;99.90
49124;DHT22;48506;48.202;16.274;2024-03-02T10:36:34;11.30;99.90
49124;DHT22;48506;48.202;16.274;2024-03-02T10:39:04;11.30;99.90
49124;DHT22;48506;48.202;16.274;2024-03-02T10:41:35;11.30;99.90
49124;DHT22;48506;48.202;16.274;2024-03-02T10:44:06;11.30;99.90
49124;DHT22;48506;48.202;16.274;2024-03-02T10:46:34;11.30;99.90
49124;DHT22;48506;48.202;16.274;2024-03-02T10:49:02;11.40;99.90
49124;DHT22;48506;48.202;16.274;2024-03-02T10:51:31;11.40;99.90
49124;DHT22;48506;48.202;16.274;2024-03-02T10:54:01;11.40;99.90
49124;DHT22;48506;48.202;16.274;2024-03-02T10:56:28;11.40;99.90
49124;DHT22;48506;48.202;16.274;2024-03-02T11:01:34;11.50;99.90
49124;DHT22;48506;48.202;16.274;2024-03-02T11:04:04;11.60;99.90
49124;DHT22;48506;48.202;16.274;2024-03-02T11:06:33;11.60;99.90
49124;DHT22;48506;48.202;16.274;2024-03-02T11:09:06;11.60;99.90
49124;DHT22;48506;48.202;16.274;2024-03-02T11:11:38;11.70;99.90
49124;DHT22;48506;48.202;16.274;2024-03-02T11:14:10;11.80;99.90
49124;DHT22;48506;48.202;16.274;2024-03-02T11:16:39;11.90;99.90
49124;DHT22;48506;48.202;16.274;2024-03-02T11:19:14;12.00;99.90
49124;DHT22;48506;48.202;16.274;2024-03-02T11:21:41;12.00;99.90
49124;DHT22;48506;48.202;16.274;2024-03-02T11:26:54;12.30;99.80
49124;DHT22;48506;48.202;16.274;2024-03-02T11:32:14;12.40;99.60
49124;DHT22;48506;48.202;16.274;2024-03-02T11:34:45;12.50;99.60
49124;DHT22;48506;48.202;16.274;2024-03-02T11:37:13;12.60;99.70
49124;DHT22;48506;48.202;16.274;2024-03-02T11:39:40;12.70;99.30
49124;DHT22;48506;48.202;16.274;2024-03-02T11:42:12;12.70;99.20
49124;DHT22;48506;48.202;16.274;2024-03-02T11:44:45;12.70;99.20
49124;DHT22;48506;48.202;16.274;2024-03-02T11:47:14;12.70;99.20
49124;DHT22;48506;48.202;16.274;2024-03-02T11:49:48;12.80;99.10
49124;DHT22;48506;48.202;16.274;2024-03-02T11:52:15;12.70;99.10
49124;DHT22;48506;48.202;16.274;2024-03-02T11:54:45;12.70;99.10
49124;DHT22;48506;48.202;16.274;2024-03-02T11:57:21;12.70;99.20
49124;DHT22;48506;48.202;16.274;2024-03-02T11:59:52;12.80;99.20
49124;DHT22;48506;48.202;16.274;2024-03-02T12:02:21;12.80;99.30
49124;DHT22;48506;48.202;16.274;2024-03-02T12:04:49;12.90;99.30
49124;DHT22;48506;48.202;16.274;2024-03-02T12:07:20;12.90;99.20
49124;DHT22;48506;48.202;16.274;2024-03-02T12:09:47;12.80;99.20
49124;DHT22;48506;48.202;16.274;2024-03-02T12:12:13;12.70;99.20
49124;DHT22;48506;48.202;16.274;2024-03-02T12:14:51;12.70;99.30
49124;DHT22;48506;48.202;16.274;2024-03-02T12:17:19;12.80;99.40
49124;DHT22;48506;48.202;16.274;2024-03-02T12:19:45;12.90;99.40
49124;DHT22;48506;48.202;16.274;2024-03-02T12:22:11;12.90;99.30
49124;DHT22;48506;48.202;16.274;2024-03-02T12:24:37;13.00;99.30
49124;DHT22;48506;48.202;16.274;2024-03-02T12:27:05;13.10;99.00
49124;DHT22;48506;48.202;16.274;2024-03-02T12:29:31;13.10;98.90
49124;DHT22;48506;48.202;16.274;2024-03-02T12:31:59;13.10;98.80
49124;DHT22;48506;48.202;16.274;2024-03-02T12:34:27;13.20;98.90
49124;DHT22;48506;48.202;16.274;2024-03-02T12:36:53;13.30;98.70
49124;DHT22;48506;48.202;16.274;2024-03-02T12:39:19;13.50;98.50
49124;DHT22;48506;48.202;16.274;2024-03-02T12:41:46;13.70;98.40
49124;DHT22;48506;48.202;16.274;2024-03-02T12:44:13;13.90;98.10
49124;DHT22;48506;48.202;16.274;2024-03-02T12:46:39;14.00;98.10
49124;DHT22;48506;48.202;16.274;2024-03-02T12:49:09;14.10;97.90
49124;DHT22;48506;48.202;16.274;2024-03-02T12:51:38;14.20;97.80
49124;DHT22;48506;48.202;16.274;2024-03-02T12:54:07;14.30;97.60
49124;DHT22;48506;48.202;16.274;2024-03-02T12:56:34;14.30;97.40
49124;DHT22;48506;48.202;16.274;2024-03-02T12:59:00;14.40;97.40
49124;DHT22;48506;48.202;16.274;2024-03-02T13:01:26;14.60;97.40
49124;DHT22;48506;48.202;16.274;2024-03-02T13:03:53;14.80;97.00
49124;DHT22;48506;48.202;16.274;2024-03-02T13:06:21;14.80;96.30
49124;DHT22;48506;48.202;16.274;2024-03-02T13:08:47;14.80;96.40
49124;DHT22;48506;48.202;16.274;2024-03-02T13:11:15;15.00;96.40
49124;DHT22;48506;48.202;16.274;2024-03-02T13:13:41;15.20;96.20
49124;DHT22;48506;48.202;16.274;2024-03-02T13:16:09;15.30;95.60
49124;DHT22;48506;48.202;16.274;2024-03-02T13:18:36;15.40;95.50
49124;DHT22;48506;48.202;16.274;2024-03-02T13:21:02;15.50;95.50
49124;DHT22;48506;48.202;16.274;2024-03-02T13:23:29;15.50;95.30
49124;DHT22;48506;48.202;16.274;2024-03-02T13:25:59;15.50;95.50
49124;DHT22;48506;48.202;16.274;2024-03-02T13:28:25;15.50;95.40
49124;DHT22;48506;48.202;16.274;2024-03-02T13:30:51;15.50;95.30
49124;DHT22;48506;48.202;16.274;2024-03-02T13:33:18;15.40;95.50
49124;DHT22;48506;48.202;16.274;2024-03-02T13:35:49;15.40;95.60
49124;DHT22;48506;48.202;16.274;2024-03-02T13:38:20;15.30;95.60
49124;DHT22;48506;48.202;16.274;2024-03-02T13:40:49;15.20;95.60
49124;DHT22;48506;48.202;16.274;2024-03-02T13:43:18;15.00;95.70
49124;DHT22;48506;48.202;16.274;2024-03-02T13:45:46;15.00;95.90
49124;DHT22;48506;48.202;16.274;2024-03-02T13:48:13;15.00;96.00
49124;DHT22;48506;48.202;16.274;2024-03-02T13:50:40;14.90;95.70
49124;DHT22;48506;48.202;16.274;2024-03-02T13:53:06;14.80;95.90
49124;DHT22;48506;48.202;16.274;2024-03-02T13:55:34;14.80;96.10
49124;DHT22;48506;48.202;16.274;2024-03-02T13:58:00;14.70;96.10
49124;DHT22;48506;48.202;16.274;2024-03-02T14:00:26;14.60;96.20
49124;DHT22;48506;48.202;16.274;2024-03-02T14:02:52;14.60;96.20
49124;DHT22;48506;48.202;16.274;2024-03-02T14:05:17;14.60;96.30
49124;DHT22;48506;48.202;16.274;2024-03-02T14:07:45;14.50;96.30
49124;DHT22;48506;48.202;16.274;2024-03-02T14:10:11;14.50;96.20
49124;DHT22;48506;48.202;16.274;2024-03-02T14:12:37;14.40;96.30
49124;DHT22;48506;48.202;16.274;2024-03-02T14:15:04;14.30;96.40
49124;DHT22;48506;48.202;16.274;2024-03-02T14:17:30;14.30;96.50
49124;DHT22;48506;48.202;16.274;2024-03-02T14:19:58;14.30;96.50
49124;DHT22;48506;48.202;16.274;2024-03-02T14:22:27;14.30;96.40
49124;DHT22;48506;48.202;16.274;2024-03-02T14:24:53;14.20;96.30
49124;DHT22;48506;48.202;16.274;2024-03-02T14:27:19;14.20;96.40
49124;DHT22;48506;48.202;16.274;2024-03-02T14:29:45;14.20;96.40
49124;DHT22;48506;48.202;16.274;2024-03-02T14:32:11;14.20;96.30
49124;DHT22;48506;48.202;16.274;2024-03-02T14:34:37;14.20;96.30
49124;DHT22;48506;48.202;16.274;2024-03-02T14:37:04;14.10;96.20
49124;DHT22;48506;48.202;16.274;2024-03-02T14:39:30;14.10;96.30
49124;DHT22;48506;48.202;16.274;2024-03-02T14:42:01;14.00;96.40
49124;DHT22;48506;48.202;16.274;2024-03-02T14:44:30;13.90;96.50
49124;DHT22;48506;48.202;16.274;2024-03-02T14:46:56;13.80;96.50
49124;DHT22;48506;48.202;16.274;2024-03-02T14:49:25;13.80;96.70
49124;DHT22;48506;48.202;16.274;2024-03-02T14:51:51;13.80;96.60
49124;DHT22;48506;48.202;16.274;2024-03-02T14:54:16;13.70;96.70
49124;DHT22;48506;48.202;16.274;2024-03-02T14:56:43;13.70;96.80
49124;DHT22;48506;48.202;16.274;2024-03-02T14:59:08;13.60;96.80
49124;DHT22;48506;48.202;16.274;2024-03-02T15:01:36;13.60;96.90
49124;DHT22;48506;48.202;16.274;2024-03-02T15:04:02;13.60;97.00
49124;DHT22;48506;48.202;16.274;2024-03-02T15:06:28;13.50;97.00
49124;DHT22;48506;48.202;16.274;2024-03-02T15:08:54;13.50;97.10
49124;DHT22;48506;48.202;16.274;2024-03-02T15:11:20;13.50;97.20
49124;DHT22;48506;48.202;16.274;2024-03-02T15:13:48;13.40;97.20
49124;DHT22;48506;48.202;16.274;2024-03-02T15:16:14;13.40;97.30
49124;DHT22;48506;48.202;16.274;2024-03-02T15:18:40;13.40;97.20
49124;DHT22;48506;48.202;16.274;2024-03-02T15:21:06;13.40;97.30
49124;DHT22;48506;48.202;16.274;2024-03-02T15:23:32;13.40;97.30
49124;DHT22;48506;48.202;16.274;2024-03-02T15:25:58;13.30;97.40
49124;DHT22;48506;48.202;16.274;2024-03-02T15:28:23;13.30;97.50
49124;DHT22;48506;48.202;16.274;2024-03-02T15:30:49;13.20;97.80
49124;DHT22;48506;48.202;16.274;2024-03-02T15:33:15;13.20;97.60